sensor_id;sensor_type;location;lat;lon;timestamp;P1;durP1;ratioP1;P2;durP2;ratioP2
27161;SDS011;54464;50.558;9.704;2023-04-03T00:01:32;4.00;;;1.30;;
27161;SDS011;54464;50.558;9.704;2023-04-03T00:03:58;4.77;;;1.30;;
27161;SDS011;54464;50.558;9.704;2023-04-03T00:06:24;3.77;;;1.43;;
27161;SDS011;54464;50.558;9.704;2023-04-03T00:08:50;4.47;;;1.43;;
27161;SDS011;54464;50.558;9.704;2023-04-03T00:11:16;3.87;;;1.40;;
27161;SDS011;54464;50.558;9.704;2023-04-03T00:13:42;3.77;;;1.30;;
27161;SDS011;54464;50.558;9.704;2023-04-03T00:16:08;2.83;;;1.50;;
27161;SDS011;54464;50.558;9.704;2023-04-03T00:18:35;2.97;;;1.50;;
27161;SDS011;54464;50.558;9.704;2023-04-03T00:21:01;3.93;;;1.53;;
27161;SDS011;54464;50.558;9.704;2023-04-03T00:23:27;2.43;;;1.30;;
27161;SDS011;54464;50.558;9.704;2023-04-03T00:25:53;5.80;;;1.70;;
27161;SDS011;54464;50.558;9.704;2023-04-03T00:28:18;2.33;;;1.30;;
27161;SDS011;54464;50.558;9.704;2023-04-03T00:30:45;2.63;;;1.20;;
27161;SDS011;54464;50.558;9.704;2023-04-03T00:33:13;2.20;;;1.30;;
27161;SDS011;54464;50.558;9.704;2023-04-03T00:35:39;3.77;;;1.57;;
27161;SDS011;54464;50.558;9.704;2023-04-03T00:38:05;5.20;;;1.83;;
27161;SDS011;54464;50.558;9.704;2023-04-03T00:40:35;4.13;;;1.53;;
27161;SDS011;54464;50.558;9.704;2023-04-03T00:43:05;3.20;;;1.30;;
27161;SDS011;54464;50.558;9.704;2023-04-03T00:45:41;2.10;;;1.47;;
27161;SDS011;54464;50.558;9.704;2023-04-03T00:48:10;4.43;;;1.60;;
27161;SDS011;54464;50.558;9.704;2023-04-03T00:50:39;3.87;;;1.70;;
27161;SDS011;54464;50.558;9.704;2023-04-03T00:53:06;3.37;;;1.80;;
27161;SDS011;54464;50.558;9.704;2023-04-03T00:55:36;5.00;;;1.50;;
27161;SDS011;54464;50.558;9.704;2023-04-03T00:58:03;4.03;;;1.70;;
27161;SDS011;54464;50.558;9.704;2023-04-03T01:00:31;4.73;;;1.70;;
27161;SDS011;54464;50.558;9.704;2023-04-03T01:02:58;4.40;;;1.43;;
27161;SDS011;54464;50.558;9.704;2023-04-03T01:05:25;2.97;;;1.63;;
27161;SDS011;54464;50.558;9.704;2023-04-03T01:07:50;5.13;;;1.73;;
27161;SDS011;54464;50.558;9.704;2023-04-03T01:10:17;4.17;;;1.50;;
27161;SDS011;54464;50.558;9.704;2023-04-03T01:12:45;3.73;;;1.60;;
27161;SDS011;54464;50.558;9.704;2023-04-03T01:15:18;6.70;;;1.60;;
27161;SDS011;54464;50.558;9.704;2023-04-03T01:17:56;5.67;;;1.57;;
27161;SDS011;54464;50.558;9.704;2023-04-03T01:25:48;4.37;;;1.60;;
27161;SDS011;54464;50.558;9.704;2023-04-03T01:28:17;4.60;;;1.93;;
27161;SDS011;54464;50.558;9.704;2023-04-03T01:33:21;2.90;;;1.60;;
27161;SDS011;54464;50.558;9.704;2023-04-03T01:35:47;4.00;;;1.63;;
27161;SDS011;54464;50.558;9.704;2023-04-03T01:38:12;3.03;;;1.47;;
27161;SDS011;54464;50.558;9.704;2023-04-03T01:40:38;5.67;;;1.67;;
27161;SDS011;54464;50.558;9.704;2023-04-03T01:43:03;4.07;;;1.40;;
27161;SDS011;54464;50.558;9.704;2023-04-03T01:45:29;2.63;;;1.40;;
27161;SDS011;54464;50.558;9.704;2023-04-03T01:47:55;5.13;;;1.73;;
27161;SDS011;54464;50.558;9.704;2023-04-03T01:50:20;5.97;;;1.80;;
27161;SDS011;54464;50.558;9.704;2023-04-03T01:52:46;4.00;;;1.70;;
27161;SDS011;54464;50.558;9.704;2023-04-03T01:55:12;5.07;;;1.87;;
27161;SDS011;54464;50.558;9.704;2023-04-03T01:57:37;5.97;;;1.93;;
27161;SDS011;54464;50.558;9.704;2023-04-03T02:00:03;4.70;;;2.03;;
27161;SDS011;54464;50.558;9.704;2023-04-03T02:02:29;6.50;;;1.80;;
27161;SDS011;54464;50.558;9.704;2023-04-03T02:04:55;2.43;;;1.50;;
27161;SDS011;54464;50.558;9.704;2023-04-03T02:07:20;2.90;;;1.50;;
27161;SDS011;54464;50.558;9.704;2023-04-03T02:09:46;6.47;;;1.73;;
27161;SDS011;54464;50.558;9.704;2023-04-03T02:12:11;3.47;;;1.60;;
27161;SDS011;54464;50.558;9.704;2023-04-03T02:14:37;3.17;;;1.30;;
27161;SDS011;54464;50.558;9.704;2023-04-03T02:17:02;4.60;;;1.87;;
27161;SDS011;54464;50.558;9.704;2023-04-03T02:19:30;3.57;;;1.90;;
27161;SDS011;54464;50.558;9.704;2023-04-03T02:21:56;3.57;;;1.53;;
27161;SDS011;54464;50.558;9.704;2023-04-03T02:24:21;5.23;;;1.50;;
27161;SDS011;54464;50.558;9.704;2023-04-03T02:26:47;5.03;;;1.70;;
27161;SDS011;54464;50.558;9.704;2023-04-03T02:29:13;3.73;;;2.00;;
27161;SDS011;54464;50.558;9.704;2023-04-03T02:31:38;4.00;;;1.67;;
27161;SDS011;54464;50.558;9.704;2023-04-03T02:34:04;5.13;;;1.87;;
27161;SDS011;54464;50.558;9.704;2023-04-03T02:36:29;2.70;;;1.50;;
27161;SDS011;54464;50.558;9.704;2023-04-03T02:38:55;4.77;;;1.60;;
27161;SDS011;54464;50.558;9.704;2023-04-03T02:41:20;4.90;;;1.60;;
27161;SDS011;54464;50.558;9.704;2023-04-03T02:43:46;3.40;;;1.47;;
27161;SDS011;54464;50.558;9.704;2023-04-03T02:46:12;2.60;;;1.67;;
27161;SDS011;54464;50.558;9.704;2023-04-03T02:48:39;4.50;;;1.57;;
27161;SDS011;54464;50.558;9.704;2023-04-03T02:51:05;4.67;;;1.70;;
27161;SDS011;54464;50.558;9.704;2023-04-03T02:53:31;4.33;;;1.70;;
27161;SDS011;54464;50.558;9.704;2023-04-03T02:55:56;5.47;;;1.90;;
27161;SDS011;54464;50.558;9.704;2023-04-03T02:58:22;3.90;;;1.97;;
27161;SDS011;54464;50.558;9.704;2023-04-03T03:00:47;3.27;;;1.77;;
27161;SDS011;54464;50.558;9.704;2023-04-03T03:03:13;6.07;;;1.63;;
27161;SDS011;54464;50.558;9.704;2023-04-03T03:05:39;4.90;;;1.93;;
27161;SDS011;54464;50.558;9.704;2023-04-03T03:08:05;5.43;;;1.83;;
27161;SDS011;54464;50.558;9.704;2023-04-03T03:10:30;3.33;;;1.90;;
27161;SDS011;54464;50.558;9.704;2023-04-03T03:12:56;4.50;;;2.13;;
27161;SDS011;54464;50.558;9.704;2023-04-03T03:15:22;3.60;;;2.00;;
27161;SDS011;54464;50.558;9.704;2023-04-03T03:17:47;5.17;;;2.20;;
27161;SDS011;54464;50.558;9.704;2023-04-03T03:20:13;4.73;;;2.13;;
27161;SDS011;54464;50.558;9.704;2023-04-03T03:22:41;3.37;;;2.00;;
27161;SDS011;54464;50.558;9.704;2023-04-03T03:25:07;5.13;;;2.20;;
27161;SDS011;54464;50.558;9.704;2023-04-03T03:27:33;7.27;;;2.40;;
27161;SDS011;54464;50.558;9.704;2023-04-03T03:29:58;6.07;;;2.40;;
27161;SDS011;54464;50.558;9.704;2023-04-03T03:32:24;4.93;;;2.73;;
27161;SDS011;54464;50.558;9.704;2023-04-03T03:34:50;6.30;;;2.37;;
27161;SDS011;54464;50.558;9.704;2023-04-03T03:37:15;6.53;;;2.60;;
27161;SDS011;54464;50.558;9.704;2023-04-03T03:39:41;5.10;;;2.20;;
27161;SDS011;54464;50.558;9.704;2023-04-03T03:42:06;4.97;;;2.10;;
27161;SDS011;54464;50.558;9.704;2023-04-03T03:44:32;7.10;;;2.53;;
27161;SDS011;54464;50.558;9.704;2023-04-03T03:46:57;5.47;;;2.50;;
27161;SDS011;54464;50.558;9.704;2023-04-03T03:49:23;5.90;;;2.50;;
27161;SDS011;54464;50.558;9.704;2023-04-03T03:51:49;5.07;;;2.07;;
27161;SDS011;54464;50.558;9.704;2023-04-03T03:54:15;5.70;;;2.10;;
27161;SDS011;54464;50.558;9.704;2023-04-03T03:56:41;4.40;;;2.20;;
27161;SDS011;54464;50.558;9.704;2023-04-03T03:59:06;5.37;;;2.30;;
27161;SDS011;54464;50.558;9.704;2023-04-03T04:01:32;4.20;;;2.13;;
27161;SDS011;54464;50.558;9.704;2023-04-03T04:03:58;6.30;;;2.30;;
27161;SDS011;54464;50.558;9.704;2023-04-03T04:06:23;4.20;;;2.10;;
27161;SDS011;54464;50.558;9.704;2023-04-03T04:08:49;5.97;;;2.53;;
27161;SDS011;54464;50.558;9.704;2023-04-03T04:11:15;3.87;;;2.77;;
27161;SDS011;54464;50.558;9.704;2023-04-03T04:13:41;3.87;;;2.50;;
27161;SDS011;54464;50.558;9.704;2023-04-03T04:16:07;3.90;;;2.97;;
27161;SDS011;54464;50.558;9.704;2023-04-03T04:18:33;4.90;;;3.07;;
27161;SDS011;54464;50.558;9.704;2023-04-03T04:20:59;5.57;;;3.77;;
27161;SDS011;54464;50.558;9.704;2023-04-03T04:23:25;5.50;;;3.37;;
27161;SDS011;54464;50.558;9.704;2023-04-03T04:25:50;6.13;;;3.27;;
27161;SDS011;54464;50.558;9.704;2023-04-03T04:28:16;8.20;;;3.20;;
27161;SDS011;54464;50.558;9.704;2023-04-03T04:30:42;6.50;;;2.87;;
27161;SDS011;54464;50.558;9.704;2023-04-03T04:33:08;7.67;;;3.47;;
27161;SDS011;54464;50.558;9.704;2023-04-03T04:35:34;5.60;;;3.40;;
27161;SDS011;54464;50.558;9.704;2023-04-03T04:38:00;5.73;;;3.33;;
27161;SDS011;54464;50.558;9.704;2023-04-03T04:40:26;3.27;;;2.77;;
27161;SDS011;54464;50.558;9.704;2023-04-03T04:42:52;8.20;;;2.93;;
27161;SDS011;54464;50.558;9.704;2023-04-03T04:45:17;5.60;;;3.10;;
27161;SDS011;54464;50.558;9.704;2023-04-03T04:47:43;5.87;;;3.00;;
27161;SDS011;54464;50.558;9.704;2023-04-03T04:50:09;5.17;;;2.73;;
27161;SDS011;54464;50.558;9.704;2023-04-03T04:52:36;3.53;;;2.97;;
27161;SDS011;54464;50.558;9.704;2023-04-03T04:55:02;4.00;;;2.87;;
27161;SDS011;54464;50.558;9.704;2023-04-03T04:57:28;4.97;;;2.83;;
27161;SDS011;54464;50.558;9.704;2023-04-03T04:59:53;5.00;;;3.00;;
27161;SDS011;54464;50.558;9.704;2023-04-03T05:02:19;4.83;;;2.80;;
27161;SDS011;54464;50.558;9.704;2023-04-03T05:04:44;7.20;;;2.97;;
27161;SDS011;54464;50.558;9.704;2023-04-03T05:07:10;4.90;;;3.30;;
27161;SDS011;54464;50.558;9.704;2023-04-03T05:09:35;3.83;;;2.73;;
27161;SDS011;54464;50.558;9.704;2023-04-03T05:12:01;4.87;;;3.03;;
27161;SDS011;54464;50.558;9.704;2023-04-03T05:14:28;5.70;;;3.23;;
27161;SDS011;54464;50.558;9.704;2023-04-03T05:16:54;5.00;;;3.30;;
27161;SDS011;54464;50.558;9.704;2023-04-03T05:19:22;4.77;;;2.87;;
27161;SDS011;54464;50.558;9.704;2023-04-03T05:21:48;5.17;;;3.17;;
27161;SDS011;54464;50.558;9.704;2023-04-03T05:24:14;5.57;;;3.30;;
27161;SDS011;54464;50.558;9.704;2023-04-03T05:26:40;5.23;;;3.10;;
27161;SDS011;54464;50.558;9.704;2023-04-03T05:29:06;5.10;;;3.20;;
27161;SDS011;54464;50.558;9.704;2023-04-03T05:31:32;4.87;;;3.13;;
27161;SDS011;54464;50.558;9.704;2023-04-03T05:33:58;5.17;;;3.30;;
27161;SDS011;54464;50.558;9.704;2023-04-03T05:36:23;6.63;;;3.27;;
27161;SDS011;54464;50.558;9.704;2023-04-03T05:38:50;4.03;;;3.43;;
27161;SDS011;54464;50.558;9.704;2023-04-03T05:41:19;7.63;;;3.60;;
27161;SDS011;54464;50.558;9.704;2023-04-03T05:43:46;5.37;;;3.40;;
27161;SDS011;54464;50.558;9.704;2023-04-03T05:46:12;4.23;;;3.83;;
27161;SDS011;54464;50.558;9.704;2023-04-03T05:48:39;4.83;;;3.47;;
27161;SDS011;54464;50.558;9.704;2023-04-03T05:51:05;7.80;;;3.80;;
27161;SDS011;54464;50.558;9.704;2023-04-03T05:53:31;6.57;;;3.60;;
27161;SDS011;54464;50.558;9.704;2023-04-03T05:56:00;5.63;;;3.17;;
27161;SDS011;54464;50.558;9.704;2023-04-03T05:58:25;4.63;;;3.70;;
27161;SDS011;54464;50.558;9.704;2023-04-03T06:00:51;5.53;;;3.20;;
27161;SDS011;54464;50.558;9.704;2023-04-03T06:03:17;6.57;;;3.17;;
27161;SDS011;54464;50.558;9.704;2023-04-03T06:05:42;4.33;;;3.10;;
27161;SDS011;54464;50.558;9.704;2023-04-03T06:08:08;5.57;;;3.30;;
27161;SDS011;54464;50.558;9.704;2023-04-03T06:10:34;5.23;;;3.07;;
27161;SDS011;54464;50.558;9.704;2023-04-03T06:13:00;6.07;;;3.40;;
27161;SDS011;54464;50.558;9.704;2023-04-03T06:15:26;5.83;;;3.47;;
27161;SDS011;54464;50.558;9.704;2023-04-03T06:17:52;6.43;;;3.50;;
27161;SDS011;54464;50.558;9.704;2023-04-03T06:20:17;5.00;;;3.30;;
27161;SDS011;54464;50.558;9.704;2023-04-03T06:22:43;5.23;;;3.67;;
27161;SDS011;54464;50.558;9.704;2023-04-03T06:25:09;4.77;;;3.17;;
27161;SDS011;54464;50.558;9.704;2023-04-03T06:27:35;6.10;;;3.47;;
27161;SDS011;54464;50.558;9.704;2023-04-03T06:30:00;4.63;;;3.87;;
27161;SDS011;54464;50.558;9.704;2023-04-03T06:32:26;5.17;;;3.10;;
27161;SDS011;54464;50.558;9.704;2023-04-03T06:34:52;3.63;;;3.30;;
27161;SDS011;54464;50.558;9.704;2023-04-03T06:37:19;4.13;;;2.97;;
27161;SDS011;54464;50.558;9.704;2023-04-03T06:39:46;5.47;;;3.47;;
27161;SDS011;54464;50.558;9.704;2023-04-03T06:42:12;4.80;;;3.30;;
27161;SDS011;54464;50.558;9.704;2023-04-03T06:44:38;7.33;;;3.03;;
27161;SDS011;54464;50.558;9.704;2023-04-03T06:47:03;3.80;;;3.13;;
27161;SDS011;54464;50.558;9.704;2023-04-03T06:49:29;4.47;;;2.93;;
27161;SDS011;54464;50.558;9.704;2023-04-03T06:51:55;5.07;;;2.90;;
27161;SDS011;54464;50.558;9.704;2023-04-03T06:54:21;6.87;;;3.30;;
27161;SDS011;54464;50.558;9.704;2023-04-03T06:56:47;5.17;;;3.67;;
27161;SDS011;54464;50.558;9.704;2023-04-03T06:59:14;5.43;;;3.07;;
27161;SDS011;54464;50.558;9.704;2023-04-03T07:01:40;7.67;;;3.60;;
27161;SDS011;54464;50.558;9.704;2023-04-03T07:04:06;6.63;;;3.50;;
27161;SDS011;54464;50.558;9.704;2023-04-03T07:06:32;5.50;;;3.33;;
27161;SDS011;54464;50.558;9.704;2023-04-03T07:08:59;5.17;;;3.27;;
27161;SDS011;54464;50.558;9.704;2023-04-03T07:11:25;3.80;;;2.97;;
27161;SDS011;54464;50.558;9.704;2023-04-03T07:13:51;6.23;;;3.30;;
27161;SDS011;54464;50.558;9.704;2023-04-03T07:16:18;4.50;;;3.40;;
27161;SDS011;54464;50.558;9.704;2023-04-03T07:18:44;5.47;;;3.57;;
27161;SDS011;54464;50.558;9.704;2023-04-03T07:21:11;5.23;;;3.20;;
27161;SDS011;54464;50.558;9.704;2023-04-03T07:23:36;5.47;;;3.40;;
27161;SDS011;54464;50.558;9.704;2023-04-03T07:26:02;5.87;;;3.30;;
27161;SDS011;54464;50.558;9.704;2023-04-03T07:28:28;6.23;;;3.80;;
27161;SDS011;54464;50.558;9.704;2023-04-03T07:30:59;5.40;;;3.30;;
27161;SDS011;54464;50.558;9.704;2023-04-03T07:33:25;4.53;;;3.30;;
27161;SDS011;54464;50.558;9.704;2023-04-03T07:35:51;4.30;;;3.37;;
27161;SDS011;54464;50.558;9.704;2023-04-03T07:38:17;6.40;;;3.90;;
27161;SDS011;54464;50.558;9.704;2023-04-03T07:40:46;6.03;;;3.77;;
27161;SDS011;54464;50.558;9.704;2023-04-03T07:43:13;5.90;;;3.53;;
27161;SDS011;54464;50.558;9.704;2023-04-03T07:45:40;4.83;;;3.47;;
27161;SDS011;54464;50.558;9.704;2023-04-03T07:48:05;4.50;;;3.70;;
27161;SDS011;54464;50.558;9.704;2023-04-03T07:50:31;5.50;;;4.00;;
27161;SDS011;54464;50.558;9.704;2023-04-03T07:52:57;5.50;;;3.43;;
27161;SDS011;54464;50.558;9.704;2023-04-03T07:55:23;5.90;;;3.50;;
27161;SDS011;54464;50.558;9.704;2023-04-03T07:57:49;5.73;;;3.50;;
27161;SDS011;54464;50.558;9.704;2023-04-03T08:00:15;8.20;;;3.53;;
27161;SDS011;54464;50.558;9.704;2023-04-03T08:02:42;4.60;;;3.20;;
27161;SDS011;54464;50.558;9.704;2023-04-03T08:05:09;6.93;;;3.27;;
27161;SDS011;54464;50.558;9.704;2023-04-03T08:07:36;8.13;;;3.87;;
27161;SDS011;54464;50.558;9.704;2023-04-03T08:10:05;6.27;;;3.90;;
27161;SDS011;54464;50.558;9.704;2023-04-03T08:12:31;3.67;;;3.00;;
27161;SDS011;54464;50.558;9.704;2023-04-03T08:14:57;6.43;;;3.33;;
27161;SDS011;54464;50.558;9.704;2023-04-03T08:17:25;4.93;;;3.70;;
27161;SDS011;54464;50.558;9.704;2023-04-03T08:19:51;6.67;;;3.40;;
27161;SDS011;54464;50.558;9.704;2023-04-03T08:22:16;4.40;;;3.23;;
27161;SDS011;54464;50.558;9.704;2023-04-03T08:24:42;7.77;;;4.13;;
27161;SDS011;54464;50.558;9.704;2023-04-03T08:27:07;6.90;;;3.27;;
27161;SDS011;54464;50.558;9.704;2023-04-03T08:29:36;5.60;;;4.40;;
27161;SDS011;54464;50.558;9.704;2023-04-03T08:32:04;9.83;;;4.00;;
27161;SDS011;54464;50.558;9.704;2023-04-03T08:34:30;6.03;;;3.67;;
27161;SDS011;54464;50.558;9.704;2023-04-03T08:36:59;4.63;;;3.83;;
27161;SDS011;54464;50.558;9.704;2023-04-03T08:39:25;4.90;;;3.70;;
27161;SDS011;54464;50.558;9.704;2023-04-03T08:41:51;4.87;;;3.57;;
27161;SDS011;54464;50.558;9.704;2023-04-03T08:44:35;6.70;;;3.57;;
27161;SDS011;54464;50.558;9.704;2023-04-03T08:50:00;5.60;;;3.40;;
27161;SDS011;54464;50.558;9.704;2023-04-03T08:52:36;4.67;;;3.60;;
27161;SDS011;54464;50.558;9.704;2023-04-03T08:55:13;4.67;;;3.23;;
27161;SDS011;54464;50.558;9.704;2023-04-03T08:58:03;5.03;;;3.60;;
27161;SDS011;54464;50.558;9.704;2023-04-03T09:01:05;4.97;;;3.60;;
27161;SDS011;54464;50.558;9.704;2023-04-03T09:03:31;4.33;;;3.23;;
27161;SDS011;54464;50.558;9.704;2023-04-03T09:11:51;5.67;;;2.90;;
27161;SDS011;54464;50.558;9.704;2023-04-03T09:18:13;4.20;;;2.60;;
27161;SDS011;54464;50.558;9.704;2023-04-03T09:20:38;3.10;;;2.60;;
27161;SDS011;54464;50.558;9.704;2023-04-03T09:23:26;3.67;;;2.47;;
27161;SDS011;54464;50.558;9.704;2023-04-03T09:26:13;5.43;;;2.70;;
27161;SDS011;54464;50.558;9.704;2023-04-03T09:28:42;3.93;;;2.40;;
27161;SDS011;54464;50.558;9.704;2023-04-03T09:31:25;2.97;;;2.20;;
27161;SDS011;54464;50.558;9.704;2023-04-03T09:33:53;2.93;;;2.13;;
27161;SDS011;54464;50.558;9.704;2023-04-03T09:39:13;2.97;;;2.17;;
27161;SDS011;54464;50.558;9.704;2023-04-03T09:41:54;2.40;;;2.20;;
27161;SDS011;54464;50.558;9.704;2023-04-03T09:44:28;4.50;;;2.40;;
27161;SDS011;54464;50.558;9.704;2023-04-03T09:46:58;3.20;;;2.17;;
27161;SDS011;54464;50.558;9.704;2023-04-03T09:49:25;3.20;;;2.10;;
27161;SDS011;54464;50.558;9.704;2023-04-03T09:51:51;4.27;;;1.90;;
27161;SDS011;54464;50.558;9.704;2023-04-03T09:57:06;2.93;;;1.73;;
27161;SDS011;54464;50.558;9.704;2023-04-03T09:59:35;3.37;;;2.27;;
27161;SDS011;54464;50.558;9.704;2023-04-03T10:02:22;5.37;;;2.20;;
27161;SDS011;54464;50.558;9.704;2023-04-03T10:04:57;2.87;;;1.80;;
27161;SDS011;54464;50.558;9.704;2023-04-03T10:07:28;3.77;;;1.70;;
27161;SDS011;54464;50.558;9.704;2023-04-03T10:10:01;2.93;;;1.80;;
27161;SDS011;54464;50.558;9.704;2023-04-03T10:12:39;2.03;;;1.60;;
27161;SDS011;54464;50.558;9.704;2023-04-03T10:15:11;4.27;;;1.70;;
27161;SDS011;54464;50.558;9.704;2023-04-03T10:17:57;3.00;;;1.77;;
27161;SDS011;54464;50.558;9.704;2023-04-03T10:20:53;3.30;;;1.87;;
27161;SDS011;54464;50.558;9.704;2023-04-03T10:23:33;2.70;;;2.30;;
27161;SDS011;54464;50.558;9.704;2023-04-03T10:26:13;3.67;;;2.50;;
27161;SDS011;54464;50.558;9.704;2023-04-03T10:35:16;3.87;;;2.83;;
27161;SDS011;54464;50.558;9.704;2023-04-03T10:38:14;3.47;;;2.70;;
27161;SDS011;54464;50.558;9.704;2023-04-03T10:43:45;5.87;;;3.83;;
27161;SDS011;54464;50.558;9.704;2023-04-03T10:46:38;5.37;;;3.80;;
27161;SDS011;54464;50.558;9.704;2023-04-03T10:52:12;5.50;;;3.53;;
27161;SDS011;54464;50.558;9.704;2023-04-03T10:54:49;6.43;;;3.40;;
27161;SDS011;54464;50.558;9.704;2023-04-03T10:57:20;4.50;;;3.07;;
27161;SDS011;54464;50.558;9.704;2023-04-03T10:59:50;4.20;;;2.47;;
27161;SDS011;54464;50.558;9.704;2023-04-03T11:05:45;4.07;;;2.47;;
27161;SDS011;54464;50.558;9.704;2023-04-03T11:08:09;3.87;;;2.30;;
27161;SDS011;54464;50.558;9.704;2023-04-03T11:10:45;2.93;;;2.00;;
27161;SDS011;54464;50.558;9.704;2023-04-03T11:13:19;2.73;;;1.80;;
27161;SDS011;54464;50.558;9.704;2023-04-03T11:15:53;2.20;;;1.40;;
27161;SDS011;54464;50.558;9.704;2023-04-03T11:18:25;2.60;;;1.57;;
27161;SDS011;54464;50.558;9.704;2023-04-03T11:21:02;2.20;;;1.10;;
27161;SDS011;54464;50.558;9.704;2023-04-03T11:23:33;2.23;;;1.10;;
27161;SDS011;54464;50.558;9.704;2023-04-03T11:26:09;1.37;;;1.07;;
27161;SDS011;54464;50.558;9.704;2023-04-03T11:28:40;2.87;;;1.17;;
27161;SDS011;54464;50.558;9.704;2023-04-03T11:31:19;2.90;;;1.07;;
27161;SDS011;54464;50.558;9.704;2023-04-03T11:33:53;2.40;;;1.00;;
27161;SDS011;54464;50.558;9.704;2023-04-03T11:36:41;1.73;;;1.00;;
27161;SDS011;54464;50.558;9.704;2023-04-03T11:39:35;1.77;;;0.93;;
27161;SDS011;54464;50.558;9.704;2023-04-03T11:42:16;2.23;;;1.20;;
27161;SDS011;54464;50.558;9.704;2023-04-03T11:45:15;1.63;;;0.90;;
27161;SDS011;54464;50.558;9.704;2023-04-03T11:47:48;3.50;;;1.20;;
27161;SDS011;54464;50.558;9.704;2023-04-03T12:05:47;1.63;;;1.27;;
27161;SDS011;54464;50.558;9.704;2023-04-03T12:16:05;2.23;;;1.10;;
27161;SDS011;54464;50.558;9.704;2023-04-03T12:18:42;1.47;;;0.97;;
27161;SDS011;54464;50.558;9.704;2023-04-03T12:21:16;1.27;;;0.93;;
27161;SDS011;54464;50.558;9.704;2023-04-03T12:29:15;1.60;;;0.93;;
27161;SDS011;54464;50.558;9.704;2023-04-03T12:31:47;1.67;;;1.00;;
27161;SDS011;54464;50.558;9.704;2023-04-03T12:46:14;2.57;;;1.00;;
27161;SDS011;54464;50.558;9.704;2023-04-03T12:48:50;1.97;;;1.07;;
27161;SDS011;54464;50.558;9.704;2023-04-03T12:51:22;2.70;;;0.80;;
27161;SDS011;54464;50.558;9.704;2023-04-03T12:54:00;1.90;;;1.20;;
27161;SDS011;54464;50.558;9.704;2023-04-03T12:56:30;1.30;;;1.00;;
27161;SDS011;54464;50.558;9.704;2023-04-03T13:01:59;1.90;;;0.80;;
27161;SDS011;54464;50.558;9.704;2023-04-03T13:04:29;2.17;;;1.07;;
27161;SDS011;54464;50.558;9.704;2023-04-03T13:06:56;1.53;;;1.07;;
27161;SDS011;54464;50.558;9.704;2023-04-03T13:09:24;2.90;;;0.80;;
27161;SDS011;54464;50.558;9.704;2023-04-03T13:12:12;1.60;;;0.90;;
27161;SDS011;54464;50.558;9.704;2023-04-03T13:14:40;1.63;;;0.90;;
27161;SDS011;54464;50.558;9.704;2023-04-03T13:17:16;1.73;;;1.10;;
27161;SDS011;54464;50.558;9.704;2023-04-03T13:19:42;3.93;;;2.10;;
27161;SDS011;54464;50.558;9.704;2023-04-03T13:22:21;6.30;;;3.73;;
27161;SDS011;54464;50.558;9.704;2023-04-03T13:24:52;3.30;;;1.20;;
27161;SDS011;54464;50.558;9.704;2023-04-03T13:27:20;2.10;;;1.20;;
27161;SDS011;54464;50.558;9.704;2023-04-03T13:29:49;1.57;;;0.80;;
27161;SDS011;54464;50.558;9.704;2023-04-03T13:32:21;1.90;;;1.00;;
27161;SDS011;54464;50.558;9.704;2023-04-03T13:34:49;1.27;;;0.97;;
27161;SDS011;54464;50.558;9.704;2023-04-03T13:37:25;1.27;;;0.90;;
27161;SDS011;54464;50.558;9.704;2023-04-03T13:39:58;2.83;;;1.17;;
27161;SDS011;54464;50.558;9.704;2023-04-03T13:42:57;2.30;;;1.20;;
27161;SDS011;54464;50.558;9.704;2023-04-03T13:45:25;2.53;;;1.03;;
27161;SDS011;54464;50.558;9.704;2023-04-03T13:48:06;1.90;;;1.17;;
27161;SDS011;54464;50.558;9.704;2023-04-03T13:50:50;1.43;;;0.90;;
27161;SDS011;54464;50.558;9.704;2023-04-03T13:53:22;3.37;;;1.83;;
27161;SDS011;54464;50.558;9.704;2023-04-03T13:58:26;2.03;;;1.00;;
27161;SDS011;54464;50.558;9.704;2023-04-03T14:01:09;2.30;;;1.10;;
27161;SDS011;54464;50.558;9.704;2023-04-03T14:06:10;1.90;;;1.10;;
27161;SDS011;54464;50.558;9.704;2023-04-03T14:08:40;2.50;;;1.70;;
27161;SDS011;54464;50.558;9.704;2023-04-03T14:11:08;2.57;;;1.10;;
27161;SDS011;54464;50.558;9.704;2023-04-03T14:13:38;1.83;;;0.97;;
27161;SDS011;54464;50.558;9.704;2023-04-03T14:16:04;2.10;;;1.00;;
27161;SDS011;54464;50.558;9.704;2023-04-03T14:18:29;4.07;;;1.03;;
27161;SDS011;54464;50.558;9.704;2023-04-03T14:20:55;2.73;;;1.10;;
27161;SDS011;54464;50.558;9.704;2023-04-03T14:23:21;2.17;;;1.10;;
27161;SDS011;54464;50.558;9.704;2023-04-03T14:25:47;2.40;;;1.27;;
27161;SDS011;54464;50.558;9.704;2023-04-03T14:28:17;2.43;;;1.30;;
27161;SDS011;54464;50.558;9.704;2023-04-03T14:30:45;2.40;;;1.30;;
27161;SDS011;54464;50.558;9.704;2023-04-03T14:33:13;2.33;;;1.30;;
27161;SDS011;54464;50.558;9.704;2023-04-03T14:35:41;3.33;;;1.40;;
27161;SDS011;54464;50.558;9.704;2023-04-03T14:40:46;2.57;;;1.43;;
27161;SDS011;54464;50.558;9.704;2023-04-03T14:43:12;3.53;;;1.70;;
27161;SDS011;54464;50.558;9.704;2023-04-03T14:45:38;3.60;;;2.13;;
27161;SDS011;54464;50.558;9.704;2023-04-03T14:48:04;3.93;;;1.90;;
27161;SDS011;54464;50.558;9.704;2023-04-03T14:50:34;3.37;;;1.43;;
27161;SDS011;54464;50.558;9.704;2023-04-03T14:53:00;1.93;;;1.30;;
27161;SDS011;54464;50.558;9.704;2023-04-03T14:55:26;1.87;;;1.20;;
27161;SDS011;54464;50.558;9.704;2023-04-03T14:57:52;1.83;;;1.10;;
27161;SDS011;54464;50.558;9.704;2023-04-03T15:00:19;2.80;;;1.20;;
27161;SDS011;54464;50.558;9.704;2023-04-03T15:02:46;2.20;;;1.10;;
27161;SDS011;54464;50.558;9.704;2023-04-03T15:05:12;3.57;;;1.03;;
27161;SDS011;54464;50.558;9.704;2023-04-03T15:07:39;3.07;;;1.00;;
27161;SDS011;54464;50.558;9.704;2023-04-03T15:10:14;2.47;;;1.53;;
27161;SDS011;54464;50.558;9.704;2023-04-03T15:12:51;3.47;;;1.80;;
27161;SDS011;54464;50.558;9.704;2023-04-03T15:15:19;3.10;;;1.40;;
27161;SDS011;54464;50.558;9.704;2023-04-03T15:17:46;2.30;;;1.23;;
27161;SDS011;54464;50.558;9.704;2023-04-03T15:20:16;2.80;;;1.20;;
27161;SDS011;54464;50.558;9.704;2023-04-03T15:22:44;6.00;;;1.37;;
27161;SDS011;54464;50.558;9.704;2023-04-03T15:25:10;2.53;;;1.07;;
27161;SDS011;54464;50.558;9.704;2023-04-03T15:27:36;3.30;;;1.40;;
27161;SDS011;54464;50.558;9.704;2023-04-03T15:30:03;2.30;;;1.47;;
27161;SDS011;54464;50.558;9.704;2023-04-03T15:32:30;3.70;;;1.30;;
27161;SDS011;54464;50.558;9.704;2023-04-03T15:34:56;3.90;;;1.10;;
27161;SDS011;54464;50.558;9.704;2023-04-03T15:37:21;3.07;;;1.20;;
27161;SDS011;54464;50.558;9.704;2023-04-03T15:39:47;1.50;;;1.10;;
27161;SDS011;54464;50.558;9.704;2023-04-03T15:42:13;1.87;;;1.03;;
27161;SDS011;54464;50.558;9.704;2023-04-03T15:44:38;2.63;;;1.20;;
27161;SDS011;54464;50.558;9.704;2023-04-03T15:47:04;3.67;;;1.33;;
27161;SDS011;54464;50.558;9.704;2023-04-03T15:49:30;4.23;;;1.50;;
27161;SDS011;54464;50.558;9.704;2023-04-03T15:51:59;2.83;;;1.10;;
27161;SDS011;54464;50.558;9.704;2023-04-03T15:54:24;3.17;;;1.50;;
27161;SDS011;54464;50.558;9.704;2023-04-03T15:56:50;6.47;;;1.47;;
27161;SDS011;54464;50.558;9.704;2023-04-03T15:59:17;2.33;;;1.17;;
27161;SDS011;54464;50.558;9.704;2023-04-03T16:01:43;1.90;;;1.20;;
27161;SDS011;54464;50.558;9.704;2023-04-03T16:04:09;1.50;;;1.17;;
27161;SDS011;54464;50.558;9.704;2023-04-03T16:06:35;2.83;;;1.07;;
27161;SDS011;54464;50.558;9.704;2023-04-03T16:09:02;3.00;;;1.23;;
27161;SDS011;54464;50.558;9.704;2023-04-03T16:11:28;1.57;;;1.17;;
27161;SDS011;54464;50.558;9.704;2023-04-03T16:13:54;2.50;;;1.27;;
27161;SDS011;54464;50.558;9.704;2023-04-03T16:16:20;4.87;;;2.00;;
27161;SDS011;54464;50.558;9.704;2023-04-03T16:18:47;3.43;;;1.60;;
27161;SDS011;54464;50.558;9.704;2023-04-03T16:21:13;2.97;;;1.40;;
27161;SDS011;54464;50.558;9.704;2023-04-03T16:23:40;2.27;;;1.10;;
27161;SDS011;54464;50.558;9.704;2023-04-03T16:26:05;3.53;;;1.20;;
27161;SDS011;54464;50.558;9.704;2023-04-03T16:28:31;2.40;;;1.30;;
27161;SDS011;54464;50.558;9.704;2023-04-03T16:30:57;2.53;;;1.10;;